Time,TemperatureF,DewpointF,PressureIn,WindDirection,WindDirectionDegrees,WindSpeedMPH,WindSpeedGustMPH,Humidity,HourlyPrecipIn,Conditions,Clouds,dailyrainin,SolarRadiationWatts/m^2,SoftwareType,DateUTC
2013-02-28 00:21:00,10.0,-12.0,-100.00,NW,316,10.0,22.0,35,0.00,,,0.00,0.000000,,2013-02-28 07:21:00,
2013-02-28 00:32:00,10.0,-12.0,-100.00,NW,316,10.0,22.0,35,0.00,,,0.00,0.000000,,2013-02-28 07:32:00,
2013-02-28 00:41:00,10.0,-12.0,-100.00,NW,316,10.0,22.0,35,0.00,,,0.00,0.000000,,2013-02-28 07:41:00,
2013-02-28 00:51:00,10.0,-12.0,-100.00,NW,316,10.0,22.0,35,0.00,,,0.00,0.000000,,2013-02-28 07:51:00,
2013-02-28 01:22:00,10.0,-12.0,-100.00,NNW,328,7.0,19.0,36,0.00,,,0.00,0.000000,,2013-02-28 08:22:00,
2013-02-28 01:32:00,10.0,-12.0,-100.00,NNW,328,7.0,19.0,36,0.00,,,0.00,0.000000,,2013-02-28 08:32:00,
2013-02-28 01:42:00,10.0,-12.0,-100.00,NNW,328,7.0,19.0,36,0.00,,,0.00,0.000000,,2013-02-28 08:42:00,
2013-02-28 01:52:00,10.0,-12.0,-100.00,NNW,328,7.0,19.0,36,0.00,,,0.00,0.000000,,2013-02-28 08:52:00,
2013-02-28 02:22:00,11.0,-12.0,-100.00,WNW,302,9.0,21.0,34,0.00,,,0.00,0.000000,,2013-02-28 09:22:00,
2013-02-28 02:32:00,11.0,-12.0,-100.00,WNW,302,9.0,21.0,34,0.00,,,0.00,0.000000,,2013-02-28 09:32:00,
2013-02-28 02:42:00,11.0,-12.0,-100.00,WNW,302,9.0,21.0,34,0.00,,,0.00,0.000000,,2013-02-28 09:42:00,
2013-02-28 02:52:00,11.0,-12.0,-100.00,WNW,302,9.0,21.0,34,0.00,,,0.00,0.000000,,2013-02-28 09:52:00,
2013-02-28 03:22:00,10.0,-11.0,-100.00,NNW,347,4.0,19.0,37,0.00,,,0.00,0.000000,,2013-02-28 10:22:00,
2013-02-28 03:32:00,10.0,-11.0,-100.00,NNW,347,4.0,19.0,37,0.00,,,0.00,0.000000,,2013-02-28 10:32:00,
2013-02-28 03:42:00,10.0,-11.0,-100.00,NNW,347,4.0,19.0,37,0.00,,,0.00,0.000000,,2013-02-28 10:42:00,
2013-02-28 03:52:00,10.0,-11.0,-100.00,NNW,347,4.0,19.0,37,0.00,,,0.00,0.000000,,2013-02-28 10:52:00,
2013-02-28 04:22:00,9.0,-10.0,-100.00,NW,324,6.0,17.0,41,0.00,,,0.00,0.000000,,2013-02-28 11:22:00,
2013-02-28 04:32:00,9.0,-10.0,-100.00,NW,324,6.0,17.0,41,0.00,,,0.00,0.000000,,2013-02-28 11:32:00,
2013-02-28 04:42:00,9.0,-10.0,-100.00,NW,324,6.0,17.0,41,0.00,,,0.00,0.000000,,2013-02-28 11:42:00,
2013-02-28 04:52:00,9.0,-10.0,-100.00,NW,324,6.0,17.0,41,0.00,,,0.00,0.000000,,2013-02-28 11:52:00,
2013-02-28 05:22:00,11.0,-9.0,-100.00,WNW,296,17.0,28.0,39,0.00,,,0.00,0.000000,,2013-02-28 12:22:00,
2013-02-28 05:32:00,11.0,-9.0,-100.00,WNW,296,17.0,28.0,39,0.00,,,0.00,0.000000,,2013-02-28 12:32:00,
2013-02-28 05:42:00,11.0,-9.0,-100.00,WNW,296,17.0,28.0,39,0.00,,,0.00,0.000000,,2013-02-28 12:42:00,
2013-02-28 05:52:00,11.0,-9.0,-100.00,WNW,296,17.0,28.0,39,0.00,,,0.00,0.000000,,2013-02-28 12:52:00,
2013-02-28 06:22:00,12.0,-9.0,-100.00,WNW,293,11.0,28.0,38,0.00,,,0.00,0.000000,,2013-02-28 13:22:00,
2013-02-28 06:32:00,12.0,-9.0,-100.00,WNW,293,11.0,28.0,38,0.00,,,0.00,0.000000,,2013-02-28 13:32:00,
2013-02-28 06:42:00,12.0,-9.0,-100.00,WNW,293,11.0,28.0,38,0.00,,,0.00,0.000000,,2013-02-28 13:42:00,
2013-02-28 06:52:00,12.0,-9.0,-100.00,WNW,293,11.0,28.0,38,0.00,,,0.00,0.000000,,2013-02-28 13:52:00,
2013-02-28 07:22:00,13.0,-9.0,-100.00,WNW,294,18.0,32.0,36,0.00,,,0.00,5.000000,,2013-02-28 14:22:00,
2013-02-28 07:32:00,13.0,-9.0,-100.00,WNW,294,18.0,32.0,36,0.00,,,0.00,5.000000,,2013-02-28 14:32:00,
2013-02-28 07:42:00,13.0,-9.0,-100.00,WNW,294,18.0,32.0,36,0.00,,,0.00,5.000000,,2013-02-28 14:42:00,
2013-02-28 07:52:00,13.0,-9.0,-100.00,WNW,294,18.0,32.0,36,0.00,,,0.00,5.000000,,2013-02-28 14:52:00,
2013-02-28 08:21:00,17.0,-9.0,-100.00,WNW,295,16.0,28.0,30,0.00,,,0.00,80.000000,,2013-02-28 15:21:00,
2013-02-28 08:32:00,17.0,-9.0,-100.00,WNW,295,16.0,28.0,30,0.00,,,0.00,80.000000,,2013-02-28 15:32:00,
2013-02-28 08:42:00,17.0,-9.0,-100.00,WNW,295,16.0,28.0,30,0.00,,,0.00,80.000000,,2013-02-28 15:42:00,
2013-02-28 08:52:00,17.0,-9.0,-100.00,WNW,295,16.0,28.0,30,0.00,,,0.00,80.000000,,2013-02-28 15:52:00,
2013-02-28 09:22:00,21.0,-8.0,-100.00,WNW,296,15.0,31.0,27,0.00,,,0.00,326.000000,,2013-02-28 16:22:00,
2013-02-28 09:32:00,21.0,-8.0,-100.00,WNW,296,15.0,31.0,27,0.00,,,0.00,326.000000,,2013-02-28 16:32:00,
2013-02-28 09:42:00,21.0,-8.0,-100.00,WNW,296,15.0,31.0,27,0.00,,,0.00,326.000000,,2013-02-28 16:42:00,
2013-02-28 09:52:00,21.0,-8.0,-100.00,WNW,296,15.0,31.0,27,0.00,,,0.00,326.000000,,2013-02-28 16:52:00,
2013-02-28 10:22:00,25.0,-7.0,-100.00,WNW,303,13.0,25.0,24,0.00,,,0.00,525.000000,,2013-02-28 17:22:00,
2013-02-28 10:32:00,25.0,-7.0,-100.00,WNW,303,13.0,25.0,24,0.00,,,0.00,525.000000,,2013-02-28 17:32:00,
2013-02-28 10:42:00,25.0,-7.0,-100.00,WNW,303,13.0,25.0,24,0.00,,,0.00,525.000000,,2013-02-28 17:42:00,
2013-02-28 10:52:00,25.0,-7.0,-100.00,WNW,303,13.0,25.0,24,0.00,,,0.00,525.000000,,2013-02-28 17:52:00,
2013-02-28 11:22:00,30.0,-4.0,-100.00,North,6,6.0,20.0,22,0.00,,,0.00,671.000000,,2013-02-28 18:22:00,
2013-02-28 11:32:00,30.0,-4.0,-100.00,North,6,6.0,20.0,22,0.00,,,0.00,671.000000,,2013-02-28 18:32:00,
2013-02-28 11:42:00,30.0,-4.0,-100.00,North,6,6.0,20.0,22,0.00,,,0.00,671.000000,,2013-02-28 18:42:00,
2013-02-28 11:52:00,30.0,-4.0,-100.00,North,6,6.0,20.0,22,0.00,,,0.00,671.000000,,2013-02-28 18:52:00,
2013-02-28 12:22:00,29.0,-2.0,-100.00,NW,320,12.0,24.0,25,0.00,,,0.00,775.000000,,2013-02-28 19:22:00,
2013-02-28 12:32:00,29.0,-2.0,-100.00,NW,320,12.0,24.0,25,0.00,,,0.00,775.000000,,2013-02-28 19:32:00,
2013-02-28 12:42:00,29.0,-2.0,-100.00,NW,320,12.0,24.0,25,0.00,,,0.00,775.000000,,2013-02-28 19:42:00,
2013-02-28 12:51:00,29.0,-2.0,-100.00,NW,320,12.0,24.0,25,0.00,,,0.00,775.000000,,2013-02-28 19:51:00,
2013-02-28 13:22:00,29.0,-2.0,-100.00,WNW,301,16.0,27.0,25,0.00,,,0.00,793.000000,,2013-02-28 20:22:00,
2013-02-28 13:32:00,29.0,-2.0,-100.00,WNW,301,16.0,27.0,25,0.00,,,0.00,793.000000,,2013-02-28 20:32:00,
2013-02-28 13:42:00,29.0,-2.0,-100.00,WNW,301,16.0,27.0,25,0.00,,,0.00,793.000000,,2013-02-28 20:42:00,
2013-02-28 13:52:00,29.0,-2.0,-100.00,WNW,301,16.0,27.0,25,0.00,,,0.00,793.000000,,2013-02-28 20:52:00,
2013-02-28 14:22:00,28.0,0.0,-100.00,WNW,291,15.0,25.0,29,0.00,,,0.00,648.000000,,2013-02-28 21:22:00,
2013-02-28 14:32:00,28.0,0.0,-100.00,WNW,291,15.0,25.0,29,0.00,,,0.00,648.000000,,2013-02-28 21:32:00,
2013-02-28 14:42:00,28.0,0.0,-100.00,WNW,291,15.0,25.0,29,0.00,,,0.00,648.000000,,2013-02-28 21:42:00,
2013-02-28 14:52:00,28.0,0.0,-100.00,WNW,291,15.0,25.0,29,0.00,,,0.00,648.000000,,2013-02-28 21:52:00,
2013-02-28 15:22:00,28.0,2.0,-100.00,NW,304,17.0,34.0,32,0.00,,,0.00,624.000000,,2013-02-28 22:22:00,
2013-02-28 15:32:00,28.0,2.0,-100.00,NW,304,17.0,34.0,32,0.00,,,0.00,624.000000,,2013-02-28 22:32:00,
2013-02-28 15:42:00,28.0,2.0,-100.00,NW,304,17.0,34.0,32,0.00,,,0.00,624.000000,,2013-02-28 22:42:00,
2013-02-28 15:52:00,28.0,2.0,-100.00,NW,304,17.0,34.0,32,0.00,,,0.00,624.000000,,2013-02-28 22:52:00,
2013-02-28 16:22:00,25.0,2.0,-100.00,NW,310,20.0,41.0,37,0.00,,,0.00,513.000000,,2013-02-28 23:22:00,
2013-02-28 16:32:00,25.0,2.0,-100.00,NW,310,20.0,41.0,37,0.00,,,0.00,513.000000,,2013-02-28 23:32:00,
2013-02-28 16:42:00,25.0,2.0,-100.00,NW,310,20.0,41.0,37,0.00,,,0.00,513.000000,,2013-02-28 23:42:00,
2013-02-28 16:52:00,25.0,2.0,-100.00,NW,310,20.0,41.0,37,0.00,,,0.00,513.000000,,2013-02-28 23:52:00,
2013-02-28 17:22:00,22.0,2.0,-100.00,NW,308,20.0,37.0,41,0.00,,,0.00,272.000000,,2013-03-01 00:22:00,
2013-02-28 17:32:00,22.0,2.0,-100.00,NW,308,20.0,37.0,41,0.00,,,0.00,272.000000,,2013-03-01 00:32:00,
2013-02-28 17:42:00,22.0,2.0,-100.00,NW,308,20.0,37.0,41,0.00,,,0.00,272.000000,,2013-03-01 00:42:00,
2013-02-28 17:51:00,22.0,2.0,-100.00,NW,308,20.0,37.0,41,0.00,,,0.00,272.000000,,2013-03-01 00:51:00,
2013-02-28 18:21:00,19.0,4.0,-100.00,NW,316,15.0,39.0,52,0.00,,,0.00,56.000000,,2013-03-01 01:21:00,
2013-02-28 18:32:00,19.0,4.0,-100.00,NW,316,15.0,39.0,52,0.00,,,0.00,56.000000,,2013-03-01 01:32:00,
2013-02-28 18:42:00,19.0,4.0,-100.00,NW,316,15.0,39.0,52,0.00,,,0.00,56.000000,,2013-03-01 01:42:00,
2013-02-28 18:51:00,19.0,4.0,-100.00,NW,316,15.0,39.0,52,0.00,,,0.00,56.000000,,2013-03-01 01:51:00,
2013-02-28 19:21:00,17.0,4.0,-100.00,NNE,19,6.0,24.0,56,0.00,,,0.00,1.000000,,2013-03-01 02:21:00,
2013-02-28 19:32:00,17.0,4.0,-100.00,NNE,19,6.0,24.0,56,0.00,,,0.00,1.000000,,2013-03-01 02:32:00,
2013-02-28 19:42:00,17.0,4.0,-100.00,NNE,19,6.0,24.0,56,0.00,,,0.00,1.000000,,2013-03-01 02:42:00,
2013-02-28 19:52:00,17.0,4.0,-100.00,NNE,19,6.0,24.0,56,0.00,,,0.00,1.000000,,2013-03-01 02:52:00,
2013-02-28 20:11:00,15.0,1.0,-100.00,NNE,21,3.0,12.0,53,0.00,,,0.00,0.000000,,2013-03-01 03:11:00,
2013-02-28 20:21:00,15.0,1.0,-100.00,NNE,21,3.0,12.0,53,0.00,,,0.00,0.000000,,2013-03-01 03:21:00,
2013-02-28 20:32:00,15.0,1.0,-100.00,NNE,21,3.0,12.0,53,0.00,,,0.00,0.000000,,2013-03-01 03:32:00,
2013-02-28 20:42:00,15.0,1.0,-100.00,NNE,21,3.0,12.0,53,0.00,,,0.00,0.000000,,2013-03-01 03:42:00,
2013-02-28 20:51:00,15.0,1.0,-100.00,NNE,21,3.0,12.0,53,0.00,,,0.00,0.000000,,2013-03-01 03:51:00,
2013-02-28 21:42:00,16.0,3.0,-100.00,North,0,3.0,16.0,56,0.00,,,0.00,0.000000,,2013-03-01 04:42:00,
2013-02-28 21:52:00,16.0,3.0,-100.00,North,0,3.0,16.0,56,0.00,,,0.00,0.000000,,2013-03-01 04:52:00,
2013-02-28 22:22:00,15.0,3.0,-100.00,North,10,2.0,11.0,57,0.00,,,-99.99,0.000000,,2013-03-01 05:22:00,
2013-02-28 22:32:00,15.0,3.0,-100.00,North,10,2.0,11.0,57,0.00,,,-99.99,0.000000,,2013-03-01 05:32:00,
2013-02-28 22:42:00,15.0,3.0,-100.00,North,10,2.0,11.0,57,0.00,,,-99.99,0.000000,,2013-03-01 05:42:00,
2013-02-28 22:52:00,15.0,3.0,-100.00,North,10,2.0,11.0,57,0.00,,,-99.99,0.000000,,2013-03-01 05:52:00,
2013-02-28 23:22:00,16.0,5.0,-100.00,SW,226,5.0,6.0,62,0.00,,,0.00,0.000000,,2013-03-01 06:22:00,
2013-02-28 23:32:00,16.0,5.0,-100.00,SW,226,5.0,6.0,62,0.00,,,0.00,0.000000,,2013-03-01 06:32:00,
2013-02-28 23:42:00,16.0,5.0,-100.00,SW,226,5.0,6.0,62,0.00,,,0.00,0.000000,,2013-03-01 06:42:00,
2013-02-28 23:52:00,16.0,5.0,-100.00,SW,226,5.0,6.0,62,0.00,,,0.00,0.000000,,2013-03-01 06:52:00,